KQFT

Yangsu-ri

Yangsu-ri, South Korea
METAR KQFT 191850Z AUTO 02001KT 9999 OVC041 18/17 A2987 RMK A02 TSNO
Observed Flight Rules
Sep-19 @ 18:50 UTC (18 minutes ago) Visual Flight Rules
Wind Visibility Clouds
20° at 1 knots 10,000+ meters
  • Overcast at 4,100' AGL
Temperatures Readings
Current 18°C / 64°F
Dewpoint 17°C / 63°F
Humidity 94%
Altimeter 29.87" Hg
Pressure 1012 hPa
METAR KQFT 191850Z AUTO 02001KT 9999 OVC041 18/17 A2987 RMK A02 TSNO
Observed Flight Rules
Sep-19 @ 18:50 UTC
(18 minutes ago)
VFR
Wind Visibility
20° at 1 knots 10,000+ meters
Clouds
  • Overcast at 4,100' AGL
Temperature Dewpoint
18°C / 64°F 17°C / 63°F
Humidity Altimeter Pressure
94% 29.87" Hg 1012 hPa